createdAt,value
2022-07-29T00:00:02.504Z,2.10
2022-07-29T00:02:33.078Z,1.70
2022-07-29T00:05:00.131Z,1.90
2022-07-29T00:07:27.008Z,1.65
2022-07-29T00:09:53.944Z,1.70
2022-07-29T00:12:26.245Z,1.58
2022-07-29T00:14:57.832Z,1.50
2022-07-29T00:17:25.428Z,1.80
2022-07-29T00:19:52.681Z,1.70
2022-07-29T00:22:20.554Z,2.10
2022-07-29T00:24:49.886Z,1.70
2022-07-29T00:27:18.348Z,1.70
2022-07-29T00:29:45.572Z,1.70
2022-07-29T00:32:12.515Z,1.60
2022-07-29T00:34:58.031Z,1.90
2022-07-29T00:37:25.149Z,1.40
2022-07-29T00:39:52.044Z,2.20
2022-07-29T00:42:18.847Z,1.92
2022-07-29T00:44:45.749Z,1.92
2022-07-29T00:47:13.668Z,2.33
2022-07-29T00:49:42.358Z,1.80
2022-07-29T00:52:11.047Z,1.80
2022-07-29T00:54:44.660Z,1.80
2022-07-29T00:57:12.683Z,2.08
2022-07-29T00:59:39.651Z,1.60
2022-07-29T01:02:06.606Z,2.15
2022-07-29T01:04:33.858Z,2.30
2022-07-29T01:07:03.269Z,1.77
2022-07-29T01:12:15.515Z,2.00
2022-07-29T01:14:43.650Z,1.83
2022-07-29T01:17:18.774Z,1.83
2022-07-29T01:20:11.759Z,1.88
2022-07-29T01:22:47.168Z,2.22
2022-07-29T01:25:38.300Z,1.80
2022-07-29T01:28:28.276Z,2.33
2022-07-29T01:30:56.525Z,2.20
2022-07-29T01:33:45.347Z,1.75
2022-07-29T01:36:17.244Z,1.92
2022-07-29T01:38:48.954Z,2.22
2022-07-29T01:41:18.443Z,2.08
2022-07-29T01:46:26.278Z,1.90
2022-07-29T01:48:59.582Z,2.00
2022-07-29T01:51:58.607Z,2.00
2022-07-29T01:54:46.740Z,2.53
2022-07-29T01:57:18.270Z,1.90
2022-07-29T01:59:47.556Z,1.95
2022-07-29T02:02:17.387Z,1.98
2022-07-29T02:04:49.518Z,2.08
2022-07-29T02:07:22.603Z,1.70
2022-07-29T02:09:51.812Z,2.00
2022-07-29T02:12:20.385Z,1.90
2022-07-29T02:14:51.507Z,1.67
2022-07-29T02:17:24.507Z,2.10
2022-07-29T02:19:52.668Z,2.08
2022-07-29T02:22:20.632Z,2.72
2022-07-29T02:24:48.703Z,2.30
2022-07-29T02:27:16.627Z,1.70
2022-07-29T02:29:45.329Z,2.42
2022-07-29T02:32:14.423Z,2.63
2022-07-29T02:34:42.501Z,2.30
2022-07-29T02:37:11.687Z,2.50
2022-07-29T02:39:41.833Z,2.10
2022-07-29T02:42:12.347Z,2.50
2022-07-29T02:44:39.348Z,2.40
2022-07-29T02:47:41.331Z,2.30
2022-07-29T02:50:22.262Z,2.78
2022-07-29T02:53:01.763Z,2.75
2022-07-29T02:58:32.988Z,2.63
2022-07-29T03:01:21.361Z,3.08
2022-07-29T03:03:51.656Z,2.78
2022-07-29T03:06:28.273Z,2.90
2022-07-29T03:09:12.073Z,2.65
2022-07-29T03:11:42.440Z,3.20
2022-07-29T03:14:20.332Z,2.60
2022-07-29T03:16:48.525Z,2.65
2022-07-29T03:19:15.936Z,3.00
2022-07-29T03:21:42.812Z,2.75
2022-07-29T03:24:10.824Z,2.83
2022-07-29T03:26:37.995Z,2.85
2022-07-29T03:29:04.806Z,2.67
2022-07-29T03:31:32.138Z,3.15
2022-07-29T03:34:00.473Z,2.45
2022-07-29T03:36:27.445Z,2.58
2022-07-29T03:38:54.329Z,2.40
2022-07-29T03:41:23.726Z,2.58
2022-07-29T03:43:52.375Z,2.65
2022-07-29T03:46:21.737Z,2.72
2022-07-29T03:48:51.552Z,2.58
2022-07-29T03:51:18.566Z,3.03
2022-07-29T03:54:09.499Z,3.03
2022-07-29T03:56:43.021Z,2.55
2022-07-29T03:59:12.282Z,3.92
2022-07-29T04:01:40.238Z,2.75
2022-07-29T04:04:07.170Z,2.65
2022-07-29T04:06:44.177Z,2.63
2022-07-29T04:09:11.649Z,2.50
2022-07-29T04:12:00.698Z,2.63
2022-07-29T04:14:27.407Z,2.70
2022-07-29T04:16:54.223Z,2.63
2022-07-29T04:19:21.128Z,2.75
2022-07-29T04:21:48.146Z,2.53
2022-07-29T04:24:15.383Z,3.00
2022-07-29T04:26:43.431Z,3.03
2022-07-29T04:29:10.440Z,2.90
2022-07-29T04:31:37.341Z,3.17
2022-07-29T04:34:04.616Z,3.28
2022-07-29T04:36:31.462Z,2.97
2022-07-29T04:38:59.118Z,3.55
2022-07-29T04:41:33.432Z,2.45
2022-07-29T04:44:05.928Z,3.00
2022-07-29T04:46:34.553Z,2.90
2022-07-29T04:49:01.505Z,2.90
2022-07-29T04:51:28.423Z,2.55
2022-07-29T04:53:55.284Z,3.72
2022-07-29T04:56:22.161Z,2.75
2022-07-29T04:58:49.079Z,2.50
2022-07-29T05:01:16.185Z,2.90
2022-07-29T05:03:43.255Z,2.97
2022-07-29T05:06:10.064Z,3.03
2022-07-29T05:08:36.889Z,2.67
2022-07-29T05:11:12.560Z,2.90
2022-07-29T05:13:45.240Z,3.05
2022-07-29T05:16:14.525Z,2.50
2022-07-29T05:18:41.869Z,2.60
2022-07-29T05:21:08.799Z,2.45
2022-07-29T05:23:35.564Z,3.08
2022-07-29T05:26:02.652Z,2.67
2022-07-29T05:28:29.729Z,3.15
2022-07-29T05:30:57.252Z,3.10
2022-07-29T05:33:34.943Z,2.90
2022-07-29T05:38:34.357Z,3.03
2022-07-29T05:41:01.460Z,3.08
2022-07-29T05:43:29.332Z,3.10
2022-07-29T05:45:56.371Z,2.90
2022-07-29T05:48:24.213Z,3.17
2022-07-29T05:50:51.077Z,3.00
2022-07-29T05:53:19.091Z,2.83
2022-07-29T05:55:47.774Z,2.78
2022-07-29T05:58:14.658Z,2.78
2022-07-29T06:00:41.678Z,2.58
2022-07-29T06:03:08.551Z,3.15
2022-07-29T06:05:35.551Z,3.78
2022-07-29T06:08:02.393Z,2.70
2022-07-29T06:10:29.371Z,2.70
2022-07-29T06:12:56.363Z,2.60
2022-07-29T06:15:23.155Z,2.30
2022-07-29T06:18:00.142Z,2.95
2022-07-29T06:20:32.655Z,2.50
2022-07-29T06:23:00.877Z,2.75
2022-07-29T06:25:31.476Z,2.50
2022-07-29T06:27:58.981Z,2.90
2022-07-29T06:30:25.956Z,2.50
2022-07-29T06:32:53.107Z,2.55
2022-07-29T06:35:41.534Z,2.70
2022-07-29T06:38:09.516Z,2.40
2022-07-29T06:41:11.055Z,2.78
2022-07-29T06:43:52.417Z,2.88
2022-07-29T06:46:22.979Z,2.60
2022-07-29T06:48:50.774Z,3.08
2022-07-29T06:51:21.733Z,2.47
2022-07-29T06:54:00.072Z,2.38
2022-07-29T06:56:38.597Z,2.25
2022-07-29T06:59:07.293Z,2.40
2022-07-29T07:01:34.151Z,2.42
2022-07-29T07:04:01.270Z,2.38
2022-07-29T07:06:28.395Z,2.97
2022-07-29T07:08:55.362Z,2.55
2022-07-29T07:11:22.330Z,2.65
2022-07-29T07:13:49.442Z,2.70
2022-07-29T07:16:16.847Z,2.10
2022-07-29T07:18:45.984Z,2.05
2022-07-29T07:21:13.404Z,2.30
2022-07-29T07:23:46.758Z,3.15
2022-07-29T07:26:13.646Z,2.10
2022-07-29T07:28:40.568Z,2.28
2022-07-29T07:31:07.461Z,2.50
2022-07-29T07:33:34.389Z,2.97
2022-07-29T07:36:01.276Z,2.65
2022-07-29T07:38:28.200Z,3.17
2022-07-29T07:40:55.226Z,2.58
2022-07-29T07:43:22.838Z,2.30
2022-07-29T07:45:49.690Z,2.83
2022-07-29T07:48:16.632Z,2.30
2022-07-29T07:50:44.861Z,3.45
2022-07-29T07:53:11.938Z,2.53
2022-07-29T07:58:30.069Z,2.40
2022-07-29T08:00:56.949Z,2.80
2022-07-29T08:03:23.822Z,2.80
2022-07-29T08:05:52.704Z,2.65
2022-07-29T08:08:19.658Z,2.63
2022-07-29T08:11:01.210Z,3.13
2022-07-29T08:13:31.123Z,2.72
2022-07-29T08:15:59.749Z,2.33
2022-07-29T08:18:28.601Z,2.25
2022-07-29T08:20:55.652Z,1.80
2022-07-29T08:23:24.023Z,2.58
2022-07-29T08:25:52.282Z,2.38
2022-07-29T08:28:22.071Z,2.38
2022-07-29T08:30:53.084Z,3.03
2022-07-29T08:33:19.879Z,2.88
2022-07-29T08:35:46.791Z,2.67
2022-07-29T08:38:13.646Z,2.92
2022-07-29T08:40:40.805Z,2.63
2022-07-29T08:43:09.246Z,2.50
2022-07-29T08:45:48.661Z,2.80
2022-07-29T08:48:21.668Z,2.40
2022-07-29T08:50:51.740Z,2.60
2022-07-29T08:53:19.271Z,2.45
2022-07-29T08:55:48.331Z,2.40
2022-07-29T08:58:16.184Z,2.72
2022-07-29T09:00:55.448Z,2.78
2022-07-29T09:03:25.639Z,2.33
2022-07-29T09:05:53.268Z,2.47
2022-07-29T09:08:21.025Z,2.40
2022-07-29T09:10:48.804Z,2.42
2022-07-29T09:13:15.670Z,2.60
2022-07-29T09:15:42.525Z,2.42
2022-07-29T09:18:20.350Z,2.40
2022-07-29T09:21:15.007Z,2.35
2022-07-29T09:23:42.686Z,3.10
2022-07-29T09:26:09.485Z,2.60
2022-07-29T09:28:43.129Z,2.70
2022-07-29T09:31:10.118Z,2.85
2022-07-29T09:33:40.113Z,2.63
2022-07-29T09:36:08.968Z,3.20
2022-07-29T09:38:37.976Z,2.90
2022-07-29T09:41:06.953Z,3.15
2022-07-29T09:43:34.517Z,2.75
2022-07-29T09:46:14.761Z,2.50
2022-07-29T09:48:41.975Z,3.22
2022-07-29T09:51:27.070Z,3.65
2022-07-29T09:54:27.481Z,2.60
2022-07-29T09:56:55.795Z,3.30
2022-07-29T09:59:27.244Z,3.15
2022-07-29T10:01:54.931Z,3.00
2022-07-29T10:04:22.162Z,3.30
2022-07-29T10:07:04.763Z,2.47
2022-07-29T10:09:32.924Z,2.92
2022-07-29T10:12:15.360Z,2.60
2022-07-29T10:14:43.505Z,2.88
2022-07-29T10:17:11.521Z,3.17
2022-07-29T10:19:39.520Z,3.03
2022-07-29T10:22:10.928Z,3.10
2022-07-29T10:24:39.347Z,2.47
2022-07-29T10:27:08.819Z,3.20
2022-07-29T10:29:36.723Z,2.60
2022-07-29T10:32:28.406Z,2.55
2022-07-29T10:35:01.385Z,2.55
2022-07-29T10:38:05.141Z,3.10
2022-07-29T10:44:23.160Z,2.85
2022-07-29T10:46:52.480Z,2.63
2022-07-29T10:49:24.736Z,3.05
2022-07-29T10:52:06.066Z,2.75
2022-07-29T10:54:36.198Z,2.70
2022-07-29T10:57:18.158Z,3.08
2022-07-29T10:59:50.088Z,3.00
2022-07-29T11:02:42.131Z,2.60
2022-07-29T11:05:13.627Z,3.45
2022-07-29T11:08:21.108Z,2.80
2022-07-29T11:11:15.866Z,2.92
2022-07-29T11:13:49.336Z,2.70
2022-07-29T11:16:16.887Z,2.70
2022-07-29T11:19:11.435Z,2.78
2022-07-29T11:22:05.411Z,3.08
2022-07-29T11:24:34.924Z,2.95
2022-07-29T11:27:13.318Z,3.05
2022-07-29T11:29:55.693Z,3.33
2022-07-29T11:32:25.096Z,2.72
2022-07-29T11:35:38.382Z,2.95
2022-07-29T11:38:29.079Z,3.10
2022-07-29T11:41:18.023Z,3.50
2022-07-29T11:43:50.683Z,3.10
2022-07-29T11:46:42.586Z,2.67
2022-07-29T11:49:11.543Z,2.53
2022-07-29T11:51:48.364Z,2.83
2022-07-29T11:54:19.561Z,3.33
2022-07-29T11:56:54.966Z,2.97
2022-07-29T11:59:22.832Z,2.78
2022-07-29T12:02:18.493Z,3.20
2022-07-29T12:04:55.305Z,3.53
2022-07-29T12:07:35.405Z,3.13
2022-07-29T12:10:04.213Z,3.03
2022-07-29T12:12:34.341Z,2.83
2022-07-29T12:15:15.977Z,3.03
2022-07-29T12:17:42.924Z,3.03
2022-07-29T12:20:10.220Z,3.00
2022-07-29T12:22:41.985Z,3.33
2022-07-29T12:28:02.044Z,3.05
2022-07-29T12:30:44.976Z,2.97
2022-07-29T12:33:23.571Z,2.47
2022-07-29T12:36:06.085Z,2.95
2022-07-29T12:38:37.933Z,2.95
2022-07-29T12:41:05.191Z,3.28
2022-07-29T12:43:32.537Z,3.28
2022-07-29T12:46:14.317Z,3.42
2022-07-29T12:48:43.420Z,3.15
2022-07-29T12:51:12.584Z,3.15
2022-07-29T12:53:39.782Z,3.83
2022-07-29T12:56:26.571Z,3.28
2022-07-29T12:58:54.877Z,3.22
2022-07-29T13:01:22.092Z,2.90
2022-07-29T13:03:57.550Z,2.85
2022-07-29T13:06:34.174Z,2.60
2022-07-29T13:09:02.111Z,3.45
2022-07-29T13:11:30.544Z,2.93
2022-07-29T13:14:06.935Z,2.65
2022-07-29T13:16:34.321Z,3.50
2022-07-29T13:19:19.451Z,3.30
2022-07-29T13:21:46.854Z,3.17
2022-07-29T13:24:16.883Z,3.45
2022-07-29T13:26:46.934Z,3.03
2022-07-29T13:29:13.997Z,2.60
2022-07-29T13:31:40.872Z,3.55
2022-07-29T13:34:07.704Z,2.90
2022-07-29T13:36:37.615Z,4.32
2022-07-29T13:39:06.787Z,3.80
2022-07-29T13:41:33.741Z,3.72
2022-07-29T13:44:00.548Z,3.60
2022-07-29T13:46:27.423Z,4.30
2022-07-29T13:48:54.393Z,3.67
2022-07-29T13:51:21.212Z,3.40
2022-07-29T13:53:48.028Z,4.45
2022-07-29T13:56:14.804Z,3.65
2022-07-29T13:58:41.793Z,3.47
2022-07-29T14:01:09.895Z,3.80
2022-07-29T14:03:39.543Z,3.70
2022-07-29T14:06:11.960Z,3.88
2022-07-29T14:08:38.832Z,3.90
2022-07-29T14:11:05.676Z,4.63
2022-07-29T14:13:32.584Z,4.68
2022-07-29T14:15:59.503Z,4.32
2022-07-29T14:18:26.358Z,4.55
2022-07-29T14:20:53.292Z,3.80
2022-07-29T14:23:20.302Z,3.25
2022-07-29T14:25:47.429Z,3.47
2022-07-29T14:28:16.512Z,4.07
2022-07-29T14:30:43.376Z,3.28
2022-07-29T14:33:11.311Z,3.53
2022-07-29T14:35:38.291Z,4.78
2022-07-29T14:38:05.162Z,3.83
2022-07-29T14:40:32.062Z,4.70
2022-07-29T14:42:58.952Z,3.63
2022-07-29T14:45:25.831Z,3.80
2022-07-29T14:47:55.114Z,5.05
2022-07-29T14:50:32.011Z,4.13
2022-07-29T14:52:59.982Z,4.28
2022-07-29T14:55:26.989Z,4.35
2022-07-29T14:58:03.056Z,3.95
2022-07-29T15:00:35.179Z,4.15
2022-07-29T15:03:03.053Z,3.72
2022-07-29T15:05:31.169Z,3.45
2022-07-29T15:07:58.563Z,3.47
2022-07-29T15:10:27.168Z,3.45
2022-07-29T15:12:54.776Z,3.35
2022-07-29T15:15:22.171Z,3.38
2022-07-29T15:17:49.384Z,4.07
2022-07-29T15:20:16.502Z,4.03
2022-07-29T15:22:43.964Z,3.50
2022-07-29T15:25:11.692Z,3.58
2022-07-29T15:27:38.564Z,4.28
2022-07-29T15:30:05.887Z,3.83
2022-07-29T15:32:32.720Z,3.35
2022-07-29T15:34:59.530Z,3.67
2022-07-29T15:37:26.402Z,3.80
2022-07-29T15:39:56.019Z,3.22
2022-07-29T15:42:26.597Z,3.85
2022-07-29T15:44:53.418Z,4.50
2022-07-29T15:47:20.240Z,6.00
2022-07-29T15:49:49.542Z,5.25
2022-07-29T15:52:25.023Z,4.20
2022-07-29T15:54:52.519Z,4.03
2022-07-29T15:57:19.344Z,4.47
2022-07-29T15:59:46.176Z,3.03
2022-07-29T16:02:13.019Z,3.10
2022-07-29T16:04:39.920Z,3.00
2022-07-29T16:07:07.384Z,3.42
2022-07-29T16:09:34.252Z,4.80
2022-07-29T16:12:01.055Z,3.75
2022-07-29T16:14:28.534Z,3.53
2022-07-29T16:16:56.375Z,2.90
2022-07-29T16:19:23.636Z,2.50
2022-07-29T16:21:50.491Z,1.92
2022-07-29T16:24:18.164Z,1.92
2022-07-29T16:26:45.036Z,2.20
2022-07-29T16:29:11.994Z,1.52
2022-07-29T16:31:39.105Z,2.47
2022-07-29T16:34:06.074Z,2.10
2022-07-29T16:36:32.889Z,1.95
2022-07-29T16:38:59.977Z,2.15
2022-07-29T16:41:26.953Z,2.45
2022-07-29T16:43:55.214Z,2.17
2022-07-29T16:46:22.425Z,2.17
2022-07-29T16:48:51.303Z,1.70
2022-07-29T16:51:18.317Z,2.03
2022-07-29T16:53:45.583Z,2.10
2022-07-29T16:56:15.905Z,2.38
2022-07-29T16:58:43.991Z,2.10
2022-07-29T17:01:12.165Z,2.70
2022-07-29T17:04:01.765Z,2.40
2022-07-29T17:06:29.637Z,2.92
2022-07-29T17:08:56.741Z,16.17
2022-07-29T17:11:54.113Z,4.00
2022-07-29T17:14:10.738Z,10.25
2022-07-29T17:16:37.695Z,2.90
2022-07-29T17:19:04.711Z,3.08
2022-07-29T17:21:31.610Z,2.75
2022-07-29T17:23:59.371Z,2.33
2022-07-29T17:26:28.099Z,2.70
2022-07-29T17:28:55.636Z,1.92
2022-07-29T17:31:23.272Z,2.78
2022-07-29T17:33:50.279Z,3.03
2022-07-29T17:36:29.094Z,3.42
2022-07-29T17:39:05.584Z,3.40
2022-07-29T17:41:32.722Z,3.45
2022-07-29T17:43:59.697Z,3.25
2022-07-29T17:46:27.479Z,3.00
2022-07-29T17:48:55.820Z,3.65
2022-07-29T17:51:23.914Z,3.22
2022-07-29T17:53:50.883Z,2.95
2022-07-29T17:56:18.096Z,3.13
2022-07-29T17:58:47.328Z,3.65
2022-07-29T18:01:15.369Z,3.47
2022-07-29T18:03:43.048Z,3.05
2022-07-29T18:06:13.341Z,3.05
2022-07-29T18:08:40.686Z,3.45
2022-07-29T18:11:07.530Z,3.47
2022-07-29T18:13:34.422Z,3.45
2022-07-29T18:16:01.374Z,3.00
2022-07-29T18:18:28.304Z,3.13
2022-07-29T18:20:55.273Z,3.70
2022-07-29T18:23:22.116Z,3.15
2022-07-29T18:25:49.000Z,4.00
2022-07-29T18:28:15.851Z,3.08
2022-07-29T18:30:46.055Z,3.85
2022-07-29T18:35:51.549Z,3.15
2022-07-29T18:38:18.973Z,3.58
2022-07-29T18:40:46.314Z,4.00
2022-07-29T18:43:13.608Z,3.10
2022-07-29T18:45:40.766Z,3.40
2022-07-29T18:48:11.862Z,3.75
2022-07-29T18:50:41.117Z,3.40
2022-07-29T18:53:08.188Z,3.75
2022-07-29T18:55:35.194Z,3.70
2022-07-29T18:58:02.006Z,3.53
2022-07-29T19:00:28.929Z,3.88
2022-07-29T19:02:56.726Z,3.95
2022-07-29T19:05:23.791Z,3.70
2022-07-29T19:07:50.801Z,3.97
2022-07-29T19:10:17.834Z,4.35
2022-07-29T19:12:45.038Z,4.10
2022-07-29T19:15:11.903Z,3.85
2022-07-29T19:17:39.263Z,3.40
2022-07-29T19:20:07.482Z,3.85
2022-07-29T19:22:34.636Z,3.35
2022-07-29T19:25:01.468Z,2.90
2022-07-29T19:27:28.329Z,4.05
2022-07-29T19:29:58.942Z,3.70
2022-07-29T19:32:26.421Z,3.40
2022-07-29T19:35:12.301Z,3.80
2022-07-29T19:37:39.225Z,3.60
2022-07-29T19:40:06.916Z,3.10
2022-07-29T19:42:33.987Z,3.28
2022-07-29T19:45:00.802Z,4.13
2022-07-29T19:47:27.662Z,4.07
2022-07-29T19:49:54.499Z,3.28
2022-07-29T19:52:21.439Z,3.50
2022-07-29T19:54:48.295Z,4.43
2022-07-29T19:57:15.929Z,4.07
2022-07-29T19:59:43.026Z,3.90
2022-07-29T20:02:12.369Z,3.63
2022-07-29T20:04:39.607Z,3.88
2022-07-29T20:07:07.465Z,3.70
2022-07-29T20:09:34.691Z,3.92
2022-07-29T20:12:01.827Z,3.88
2022-07-29T20:14:28.800Z,4.00
2022-07-29T20:16:55.625Z,3.25
2022-07-29T20:19:22.530Z,3.90
2022-07-29T20:21:50.695Z,3.75
2022-07-29T20:24:18.761Z,4.03
2022-07-29T20:26:45.527Z,4.07
2022-07-29T20:29:12.504Z,3.97
2022-07-29T20:31:39.607Z,4.15
2022-07-29T20:34:06.697Z,4.10
2022-07-29T20:36:33.467Z,3.72
2022-07-29T20:39:00.309Z,3.97
2022-07-29T20:41:28.977Z,4.70
2022-07-29T20:43:56.116Z,4.43
2022-07-29T20:46:23.214Z,4.53
2022-07-29T20:48:50.166Z,3.97
2022-07-29T20:51:17.074Z,4.35
2022-07-29T20:53:44.298Z,4.38
2022-07-29T20:56:12.425Z,3.55
2022-07-29T20:58:40.835Z,4.25
2022-07-29T21:01:07.807Z,4.35
2022-07-29T21:03:34.643Z,4.45
2022-07-29T21:06:01.682Z,4.88
2022-07-29T21:08:28.728Z,4.05
2022-07-29T21:10:55.701Z,3.97
2022-07-29T21:13:23.095Z,4.10
2022-07-29T21:15:51.748Z,3.80
2022-07-29T21:18:32.934Z,4.53
2022-07-29T21:21:01.061Z,4.57
2022-07-29T21:23:28.211Z,4.25
2022-07-29T21:25:55.321Z,4.75
2022-07-29T21:28:41.190Z,4.30
2022-07-29T21:31:16.604Z,4.60
2022-07-29T21:33:45.836Z,4.28
2022-07-29T21:36:47.636Z,4.57
2022-07-29T21:39:06.901Z,4.95
2022-07-29T21:41:34.513Z,4.57
2022-07-29T21:44:01.633Z,3.75
2022-07-29T21:46:28.612Z,4.93
2022-07-29T21:48:55.701Z,4.13
2022-07-29T21:51:22.653Z,4.80
2022-07-29T21:53:50.505Z,4.93
2022-07-29T21:56:19.971Z,4.80
2022-07-29T21:58:49.396Z,4.88
2022-07-29T22:01:16.360Z,5.32
2022-07-29T22:03:43.407Z,5.63
2022-07-29T22:06:16.707Z,5.93
2022-07-29T22:08:45.661Z,5.60
2022-07-29T22:11:12.971Z,5.55
2022-07-29T22:13:40.145Z,5.57
2022-07-29T22:16:07.298Z,6.10
2022-07-29T22:18:34.103Z,5.70
2022-07-29T22:21:00.983Z,7.13
2022-07-29T22:23:27.854Z,6.25
2022-07-29T22:25:54.752Z,5.47
2022-07-29T22:28:21.584Z,6.03
2022-07-29T22:30:48.435Z,6.45
2022-07-29T22:33:16.873Z,5.82
2022-07-29T22:35:44.706Z,5.40
2022-07-29T22:38:11.693Z,5.75
2022-07-29T22:40:38.540Z,5.65
2022-07-29T22:43:06.228Z,6.15
2022-07-29T22:45:33.037Z,5.65
2022-07-29T22:47:59.880Z,5.78
2022-07-29T22:50:26.706Z,5.95
2022-07-29T22:52:53.528Z,6.75
2022-07-29T22:55:20.657Z,7.07
2022-07-29T22:57:47.444Z,5.78
2022-07-29T23:00:14.725Z,7.25
2022-07-29T23:02:41.799Z,6.97
2022-07-29T23:05:09.355Z,6.22
2022-07-29T23:07:36.199Z,6.55
2022-07-29T23:10:03.795Z,6.72
2022-07-29T23:12:30.604Z,6.90
2022-07-29T23:14:57.427Z,6.03
2022-07-29T23:17:24.425Z,5.90
2022-07-29T23:19:51.270Z,6.97
2022-07-29T23:22:18.513Z,6.53
2022-07-29T23:24:45.510Z,7.40
2022-07-29T23:27:12.347Z,7.43
2022-07-29T23:29:39.315Z,6.97
2022-07-29T23:32:06.251Z,7.32
2022-07-29T23:34:33.082Z,7.88
2022-07-29T23:37:00.181Z,7.95
2022-07-29T23:39:27.135Z,8.73
2022-07-29T23:41:53.984Z,8.05
2022-07-29T23:44:20.952Z,8.93
2022-07-29T23:46:47.787Z,8.98
2022-07-29T23:49:14.739Z,8.93
2022-07-29T23:51:41.601Z,8.13
2022-07-29T23:54:08.515Z,9.07
2022-07-29T23:56:35.285Z,7.90
2022-07-29T23:59:05.661Z,7.25
